createdAt,value
2024-05-09T00:01:50.581Z,65.31
2024-05-09T00:04:16.737Z,65.05
2024-05-09T00:06:42.821Z,64.91
2024-05-09T00:09:08.872Z,65.12
2024-05-09T00:11:35.024Z,64.70
2024-05-09T00:14:01.514Z,64.90
2024-05-09T00:16:27.583Z,65.18
2024-05-09T00:18:54.098Z,64.54
2024-05-09T00:21:20.326Z,64.44
2024-05-09T00:23:46.378Z,65.08
2024-05-09T00:26:16.715Z,64.86
2024-05-09T00:28:42.803Z,65.09
2024-05-09T00:31:08.863Z,64.53
2024-05-09T00:33:35.069Z,65.80
2024-05-09T00:36:01.241Z,64.96
2024-05-09T00:38:27.341Z,64.73
2024-05-09T00:40:53.497Z,64.90
2024-05-09T00:43:19.657Z,64.77
2024-05-09T00:45:46.048Z,65.14
2024-05-09T00:48:16.432Z,65.07
2024-05-09T00:50:46.108Z,65.13
2024-05-09T00:53:14.886Z,65.54
2024-05-09T00:55:41.760Z,65.71
2024-05-09T00:58:11.500Z,64.05
2024-05-09T01:00:40.316Z,63.22
2024-05-09T01:03:09.085Z,64.62
2024-05-09T01:05:38.342Z,63.76
2024-05-09T01:08:05.325Z,63.30
2024-05-09T01:10:34.797Z,64.07
2024-05-09T01:13:05.255Z,63.36
2024-05-09T01:15:31.632Z,64.09
2024-05-09T01:18:00.397Z,63.46
2024-05-09T01:20:37.241Z,63.59
2024-05-09T01:23:08.831Z,64.35
2024-05-09T01:25:35.060Z,64.74
2024-05-09T01:28:01.296Z,64.20
2024-05-09T01:30:33.948Z,64.45
2024-05-09T01:33:02.386Z,64.34
2024-05-09T01:35:28.659Z,63.01
2024-05-09T01:37:54.872Z,64.08
2024-05-09T01:40:28.494Z,63.29
2024-05-09T01:43:00.116Z,63.82
2024-05-09T01:45:26.154Z,64.28
2024-05-09T01:47:52.500Z,65.42
2024-05-09T01:50:28.825Z,64.63
2024-05-09T01:53:02.449Z,65.34
2024-05-09T01:55:28.575Z,64.65
2024-05-09T01:57:54.638Z,64.60
2024-05-09T02:00:30.274Z,65.00
2024-05-09T02:03:04.052Z,65.76
2024-05-09T02:05:30.317Z,65.18
2024-05-09T02:07:56.456Z,64.52
2024-05-09T02:10:26.579Z,64.93
2024-05-09T02:12:58.270Z,65.18
2024-05-09T02:15:24.374Z,64.91
2024-05-09T02:17:50.602Z,65.60
2024-05-09T02:20:23.139Z,65.44
2024-05-09T02:22:56.904Z,65.82
2024-05-09T02:25:23.848Z,66.31
2024-05-09T02:27:50.454Z,64.02
2024-05-09T02:30:22.893Z,64.53
2024-05-09T02:32:56.697Z,63.92
2024-05-09T02:35:22.932Z,64.37
2024-05-09T02:37:49.117Z,64.00
2024-05-09T02:40:21.580Z,65.29
2024-05-09T02:42:51.772Z,65.93
2024-05-09T02:45:17.818Z,65.65
2024-05-09T02:47:44.049Z,66.01
2024-05-09T02:50:13.319Z,65.70
2024-05-09T02:52:42.037Z,66.33
2024-05-09T02:55:08.109Z,66.01
2024-05-09T02:57:34.136Z,65.47
2024-05-09T03:00:00.198Z,64.09
2024-05-09T03:02:26.633Z,64.12
2024-05-09T03:04:52.937Z,63.66
2024-05-09T03:07:20.374Z,64.55
2024-05-09T03:09:46.866Z,64.28
2024-05-09T03:12:12.991Z,62.97
2024-05-09T03:14:39.216Z,63.11
2024-05-09T03:17:05.309Z,63.36
2024-05-09T03:19:31.502Z,63.19
2024-05-09T03:21:58.328Z,62.32
2024-05-09T03:24:24.360Z,60.39
2024-05-09T03:26:50.412Z,60.56
2024-05-09T03:29:16.505Z,59.41
2024-05-09T03:31:42.603Z,59.09
2024-05-09T03:34:10.585Z,56.10
2024-05-09T03:36:40.872Z,52.71
2024-05-09T03:39:09.154Z,53.84
2024-05-09T03:41:35.313Z,53.26
2024-05-09T03:44:01.578Z,52.96
2024-05-09T03:46:27.742Z,51.66
2024-05-09T03:48:53.905Z,54.07
2024-05-09T03:51:20.083Z,54.40
2024-05-09T03:53:46.219Z,51.93
2024-05-09T03:56:12.333Z,52.30
2024-05-09T03:58:38.508Z,51.78
2024-05-09T04:01:05.009Z,52.01
2024-05-09T04:03:31.296Z,48.04
2024-05-09T04:05:57.465Z,47.84
2024-05-09T04:08:23.572Z,46.50
2024-05-09T04:10:49.723Z,48.65
2024-05-09T04:13:15.804Z,56.52
2024-05-09T04:15:41.857Z,51.99
2024-05-09T04:18:08.131Z,50.46
2024-05-09T04:20:38.936Z,48.90
2024-05-09T04:23:10.073Z,46.30
2024-05-09T04:25:36.175Z,50.12
2024-05-09T04:28:02.497Z,48.79
2024-05-09T04:30:37.478Z,46.94
2024-05-09T04:33:08.500Z,46.84
2024-05-09T04:35:36.851Z,47.06
2024-05-09T04:38:03.173Z,47.84
2024-05-09T04:40:34.067Z,47.97
2024-05-09T04:43:03.042Z,50.35
2024-05-09T04:45:29.082Z,50.08
2024-05-09T04:47:55.349Z,48.96
2024-05-09T04:50:30.176Z,47.41
2024-05-09T04:53:02.992Z,46.55
2024-05-09T04:55:29.159Z,46.59
2024-05-09T04:57:55.188Z,48.39
2024-05-09T05:00:28.643Z,47.55
2024-05-09T05:03:05.102Z,47.86
2024-05-09T05:05:31.566Z,48.16
2024-05-09T05:07:57.648Z,44.73
2024-05-09T05:10:32.935Z,43.40
2024-05-09T05:13:19.723Z,44.00
2024-05-09T05:15:47.422Z,42.87
2024-05-09T05:18:14.478Z,42.11
2024-05-09T05:20:41.386Z,43.03
2024-05-09T05:23:10.731Z,42.06
2024-05-09T05:25:37.014Z,41.12
2024-05-09T05:28:03.241Z,39.90
2024-05-09T05:30:34.426Z,41.06
2024-05-09T05:33:02.311Z,40.78
2024-05-09T05:35:28.839Z,40.22
2024-05-09T05:37:55.047Z,38.99
2024-05-09T05:40:28.514Z,41.37
2024-05-09T05:43:02.498Z,40.95
2024-05-09T05:45:28.544Z,41.14
2024-05-09T05:47:54.875Z,40.60
2024-05-09T05:50:27.872Z,39.22
2024-05-09T05:53:01.214Z,39.70
2024-05-09T05:55:27.263Z,41.07
2024-05-09T05:57:53.324Z,41.03
2024-05-09T06:00:29.182Z,40.74
2024-05-09T06:03:01.623Z,41.08
2024-05-09T06:05:28.189Z,39.71
2024-05-09T06:07:54.350Z,41.42
2024-05-09T06:10:25.491Z,43.14
2024-05-09T06:12:55.615Z,41.13
2024-05-09T06:15:21.651Z,36.39
2024-05-09T06:17:47.879Z,38.24
2024-05-09T06:20:20.547Z,38.65
2024-05-09T06:22:52.935Z,37.68
2024-05-09T06:25:19.018Z,37.66
2024-05-09T06:27:45.214Z,35.65
2024-05-09T06:30:24.819Z,36.97
2024-05-09T06:32:55.708Z,37.61
2024-05-09T06:35:21.900Z,36.91
2024-05-09T06:37:48.044Z,35.14
2024-05-09T06:40:17.475Z,35.87
2024-05-09T06:42:43.822Z,35.41
2024-05-09T06:45:09.890Z,37.24
2024-05-09T06:47:36.087Z,37.53
2024-05-09T06:50:02.709Z,37.28
2024-05-09T06:52:29.675Z,37.96
2024-05-09T06:54:55.727Z,37.80
2024-05-09T06:57:22.593Z,37.07
2024-05-09T06:59:48.645Z,38.43
2024-05-09T07:02:14.736Z,36.31
2024-05-09T07:04:40.853Z,35.53
2024-05-09T07:07:08.747Z,35.16
2024-05-09T07:09:34.845Z,35.54
2024-05-09T07:12:01.003Z,35.84
2024-05-09T07:14:27.376Z,34.45
2024-05-09T07:16:53.531Z,34.70
2024-05-09T07:19:19.779Z,36.00
2024-05-09T07:21:45.943Z,35.75
2024-05-09T07:24:11.989Z,35.75
2024-05-09T07:26:38.232Z,35.63
2024-05-09T07:29:04.389Z,35.29
2024-05-09T07:31:30.900Z,33.62
2024-05-09T07:33:57.098Z,34.92
2024-05-09T07:36:23.226Z,36.36
2024-05-09T07:38:49.298Z,35.17
2024-05-09T07:41:15.437Z,34.94
2024-05-09T07:43:41.537Z,34.55
2024-05-09T07:47:13.873Z,35.60
2024-05-09T07:50:35.478Z,35.89
2024-05-09T07:54:10.727Z,36.12
2024-05-09T07:56:37.264Z,37.88
2024-05-09T07:59:03.461Z,37.80
2024-05-09T08:01:29.755Z,37.45
2024-05-09T08:03:56.128Z,37.66
2024-05-09T08:06:23.226Z,38.66
2024-05-09T08:08:49.449Z,37.16
2024-05-09T08:11:15.579Z,37.86
2024-05-09T08:13:41.745Z,36.44
2024-05-09T08:16:08.700Z,37.60
2024-05-09T08:18:35.188Z,36.72
2024-05-09T08:21:01.484Z,38.12
2024-05-09T08:23:28.184Z,36.40
2024-05-09T08:25:54.237Z,35.94
2024-05-09T08:28:20.766Z,36.41
2024-05-09T08:30:47.024Z,36.28
2024-05-09T08:33:13.355Z,35.78
2024-05-09T08:35:39.510Z,36.69
2024-05-09T08:38:07.030Z,36.36
2024-05-09T08:40:36.283Z,35.75
2024-05-09T08:43:08.363Z,35.89
2024-05-09T08:45:35.901Z,36.55
2024-05-09T08:48:04.944Z,35.71
2024-05-09T08:50:37.919Z,35.88
2024-05-09T09:00:38.641Z,35.53
2024-05-09T09:03:09.086Z,35.04
2024-05-09T09:05:38.063Z,35.83
2024-05-09T09:08:06.071Z,37.23
2024-05-09T09:10:33.238Z,36.68
2024-05-09T09:13:03.850Z,36.24
2024-05-09T09:15:30.069Z,37.13
2024-05-09T09:17:59.970Z,35.50
2024-05-09T09:20:34.089Z,36.73
2024-05-09T09:23:02.924Z,36.09
2024-05-09T09:25:29.023Z,35.40
2024-05-09T09:27:57.050Z,37.08
2024-05-09T09:30:34.472Z,37.38
2024-05-09T09:33:03.788Z,34.74
2024-05-09T09:35:29.888Z,35.06
2024-05-09T09:38:00.707Z,35.14
2024-05-09T09:40:32.305Z,32.91
2024-05-09T09:43:01.056Z,33.71
2024-05-09T09:45:28.399Z,32.41
2024-05-09T09:47:56.584Z,31.99
2024-05-09T09:50:33.224Z,31.99
2024-05-09T09:53:01.489Z,31.67
2024-05-09T09:55:27.982Z,31.48
2024-05-09T09:57:55.741Z,32.34
2024-05-09T10:00:27.450Z,31.48
2024-05-09T10:02:58.564Z,31.59
2024-05-09T10:05:25.023Z,30.94
2024-05-09T10:07:52.735Z,30.91
2024-05-09T10:10:31.947Z,30.30
2024-05-09T10:13:00.525Z,29.91
2024-05-09T10:15:26.906Z,29.30
2024-05-09T10:17:53.330Z,30.75
2024-05-09T10:20:22.198Z,30.26
2024-05-09T10:22:53.752Z,29.74
2024-05-09T10:25:20.211Z,30.39
2024-05-09T10:27:54.768Z,28.79
2024-05-09T10:30:29.800Z,28.20
2024-05-09T10:33:01.783Z,29.77
2024-05-09T10:35:30.752Z,29.20
2024-05-09T10:38:02.756Z,28.13
2024-05-09T10:40:31.704Z,28.05
2024-05-09T10:43:01.957Z,28.28
2024-05-09T10:45:29.615Z,28.63
2024-05-09T10:47:55.856Z,28.77
2024-05-09T10:50:25.564Z,30.17
2024-05-09T10:52:55.013Z,29.13
2024-05-09T10:55:21.242Z,27.79
2024-05-09T10:57:47.758Z,28.13
2024-05-09T11:00:23.184Z,28.62
2024-05-09T11:02:56.227Z,28.00
2024-05-09T11:05:23.532Z,28.17
2024-05-09T11:07:50.520Z,28.23
2024-05-09T11:10:24.419Z,27.97
2024-05-09T11:12:53.670Z,28.14
2024-05-09T11:17:45.862Z,27.68
2024-05-09T11:20:17.123Z,28.22
2024-05-09T11:22:49.206Z,28.06
2024-05-09T11:25:15.379Z,26.54
2024-05-09T11:27:41.844Z,25.68
2024-05-09T11:30:24.213Z,25.23
2024-05-09T11:32:58.079Z,25.40
2024-05-09T11:35:25.878Z,26.64
2024-05-09T11:37:53.257Z,25.66
2024-05-09T11:40:25.327Z,25.24
2024-05-09T11:42:54.687Z,26.20
2024-05-09T11:45:21.354Z,26.04
2024-05-09T11:47:47.819Z,24.80
2024-05-09T11:50:22.465Z,25.64
2024-05-09T11:52:53.523Z,24.22
2024-05-09T11:55:19.796Z,23.72
2024-05-09T11:57:45.910Z,24.91
2024-05-09T12:00:18.188Z,24.45
2024-05-09T12:02:52.020Z,24.33
2024-05-09T12:05:18.388Z,25.00
2024-05-09T12:07:44.586Z,25.88
2024-05-09T12:10:16.568Z,24.47
2024-05-09T12:12:45.464Z,24.79
2024-05-09T12:15:12.104Z,24.29
2024-05-09T12:17:38.246Z,24.37
2024-05-09T12:20:09.030Z,24.92
2024-05-09T12:22:37.254Z,24.40
2024-05-09T12:25:04.319Z,24.11
2024-05-09T12:27:30.858Z,25.89
2024-05-09T12:29:56.931Z,24.34
2024-05-09T12:32:23.190Z,22.88
2024-05-09T12:34:49.286Z,22.92
2024-05-09T12:37:15.451Z,23.21
2024-05-09T12:39:41.587Z,22.86
2024-05-09T12:42:07.739Z,22.82
2024-05-09T12:44:33.826Z,23.08
2024-05-09T12:47:00.863Z,22.69
2024-05-09T12:49:27.035Z,23.25
2024-05-09T12:51:53.288Z,23.06
2024-05-09T12:54:19.374Z,22.54
2024-05-09T12:56:45.448Z,22.33
2024-05-09T12:59:11.546Z,22.41
2024-05-09T13:01:37.728Z,21.49
2024-05-09T13:04:04.404Z,21.88
2024-05-09T13:06:30.747Z,22.87
2024-05-09T13:08:57.020Z,21.98
2024-05-09T13:11:23.121Z,22.81
2024-05-09T13:13:49.211Z,23.00
2024-05-09T13:16:15.361Z,22.71
2024-05-09T13:18:41.550Z,21.77
2024-05-09T13:21:07.667Z,21.49
2024-05-09T13:23:33.787Z,23.24
2024-05-09T13:25:59.858Z,23.05
2024-05-09T13:28:26.267Z,22.40
2024-05-09T13:30:52.412Z,23.07
2024-05-09T13:33:18.720Z,22.60
2024-05-09T13:35:48.926Z,22.27
2024-05-09T13:38:20.763Z,22.17
2024-05-09T13:40:47.990Z,21.73
2024-05-09T13:43:14.428Z,20.83
2024-05-09T13:45:40.609Z,21.95
2024-05-09T13:48:09.079Z,21.59
2024-05-09T13:50:36.794Z,20.21
2024-05-09T13:53:04.278Z,21.64
2024-05-09T13:55:30.417Z,21.28
2024-05-09T13:57:56.671Z,21.08
2024-05-09T14:00:37.248Z,20.47
2024-05-09T14:03:09.464Z,20.96
2024-05-09T14:05:35.925Z,20.60
2024-05-09T14:08:02.745Z,20.79
2024-05-09T14:10:31.344Z,19.86
2024-05-09T14:12:58.336Z,19.80
2024-05-09T14:15:24.401Z,19.71
2024-05-09T14:17:50.578Z,19.62
2024-05-09T14:20:23.731Z,19.26
2024-05-09T14:22:56.591Z,19.94
2024-05-09T14:25:25.659Z,19.14
2024-05-09T14:27:51.838Z,19.40
2024-05-09T14:30:25.883Z,18.18
2024-05-09T14:32:59.829Z,19.69
2024-05-09T14:35:25.911Z,20.28
2024-05-09T14:37:51.966Z,19.16
2024-05-09T14:42:47.037Z,18.76
2024-05-09T14:45:13.184Z,18.67
2024-05-09T14:47:39.556Z,19.24
2024-05-09T14:50:07.092Z,18.55
2024-05-09T14:52:34.943Z,18.05
2024-05-09T14:55:01.291Z,18.66
2024-05-09T14:57:27.752Z,17.93
2024-05-09T14:59:53.791Z,17.67
2024-05-09T15:02:20.169Z,17.76
2024-05-09T15:04:46.506Z,17.72
2024-05-09T15:07:12.758Z,16.87
2024-05-09T15:09:38.872Z,16.98
2024-05-09T15:12:05.139Z,17.43
2024-05-09T15:14:31.195Z,17.22
2024-05-09T15:16:57.329Z,17.35
2024-05-09T15:19:23.511Z,17.70
2024-05-09T15:21:49.783Z,17.58
2024-05-09T15:24:15.910Z,17.13
2024-05-09T15:26:41.981Z,17.03
2024-05-09T15:29:08.544Z,17.58
2024-05-09T15:31:34.606Z,17.48
2024-05-09T15:34:00.757Z,18.10
2024-05-09T15:36:26.827Z,17.25
2024-05-09T15:38:55.001Z,18.01
2024-05-09T15:41:21.144Z,17.82
2024-05-09T15:43:47.185Z,17.06
2024-05-09T15:46:13.346Z,17.20
2024-05-09T15:48:44.347Z,16.79
2024-05-09T15:51:11.024Z,17.13
2024-05-09T15:53:37.090Z,16.12
2024-05-09T15:56:03.317Z,16.64
2024-05-09T15:58:29.531Z,16.32
2024-05-09T16:00:55.785Z,16.41
2024-05-09T16:03:21.974Z,16.39
2024-05-09T16:05:49.980Z,16.78
2024-05-09T16:08:16.241Z,16.66
2024-05-09T16:10:45.615Z,17.55
2024-05-09T16:13:12.740Z,16.84
2024-05-09T16:15:39.172Z,16.01
2024-05-09T16:18:06.162Z,16.80
2024-05-09T16:20:38.938Z,17.23
2024-05-09T16:23:08.287Z,16.76
2024-05-09T16:25:34.909Z,16.56
2024-05-09T16:28:02.085Z,16.81
2024-05-09T16:30:34.431Z,16.81
2024-05-09T16:33:03.506Z,16.50
2024-05-09T16:35:30.296Z,16.43
2024-05-09T16:37:56.498Z,16.43
2024-05-09T16:40:30.233Z,15.89
2024-05-09T16:43:03.673Z,16.47
2024-05-09T16:45:30.002Z,16.06
2024-05-09T16:47:56.513Z,15.80
2024-05-09T16:50:29.201Z,16.30
2024-05-09T16:52:58.734Z,16.47
2024-05-09T16:55:24.829Z,16.13
2024-05-09T16:57:51.490Z,16.34
2024-05-09T17:00:25.621Z,16.77
2024-05-09T17:02:57.924Z,16.33
2024-05-09T17:05:24.104Z,16.01
2024-05-09T17:07:50.425Z,15.76
2024-05-09T17:10:26.395Z,16.30
2024-05-09T17:12:57.995Z,17.05
2024-05-09T17:15:24.109Z,17.03
2024-05-09T17:17:50.262Z,17.35
2024-05-09T17:20:26.009Z,17.84
2024-05-09T17:22:58.565Z,18.45
2024-05-09T17:25:24.648Z,18.83
2024-05-09T17:27:50.749Z,19.16
2024-05-09T17:30:28.024Z,19.26
2024-05-09T17:32:58.869Z,19.67
2024-05-09T17:35:24.997Z,19.58
2024-05-09T17:37:51.110Z,20.32
2024-05-09T17:40:20.714Z,21.22
2024-05-09T17:42:50.761Z,22.07
2024-05-09T17:45:16.839Z,22.00
2024-05-09T17:47:43.088Z,23.40
2024-05-09T17:50:14.729Z,22.96
2024-05-09T17:52:43.327Z,24.21
2024-05-09T17:55:09.523Z,24.53
2024-05-09T17:57:35.655Z,25.13
2024-05-09T18:00:02.955Z,25.88
2024-05-09T18:02:31.131Z,25.86
2024-05-09T18:04:57.333Z,26.55
2024-05-09T18:07:23.497Z,26.03
2024-05-09T18:09:49.651Z,26.48
2024-05-09T18:12:15.839Z,27.19
2024-05-09T18:14:41.890Z,28.22
2024-05-09T18:17:07.961Z,28.69
2024-05-09T18:19:34.574Z,29.66
2024-05-09T18:22:00.932Z,29.13
2024-05-09T18:24:27.022Z,30.27
2024-05-09T18:26:53.330Z,29.80
2024-05-09T18:29:22.053Z,30.55
2024-05-09T18:31:48.237Z,31.25
2024-05-09T18:34:14.450Z,31.43
2024-05-09T18:36:40.986Z,31.73
2024-05-09T18:39:07.140Z,31.95
2024-05-09T18:41:33.206Z,32.30
2024-05-09T18:43:59.353Z,33.26
2024-05-09T18:46:26.008Z,33.11
2024-05-09T18:48:52.329Z,32.93
2024-05-09T18:51:18.698Z,33.55
2024-05-09T18:53:48.381Z,34.08
2024-05-09T18:56:14.515Z,35.13
2024-05-09T18:58:40.657Z,34.63
2024-05-09T19:01:06.867Z,35.40
2024-05-09T19:03:33.244Z,35.13
2024-05-09T19:05:59.450Z,35.79
2024-05-09T19:08:25.698Z,36.13
2024-05-09T19:10:51.996Z,35.84
2024-05-09T19:13:18.260Z,35.97
2024-05-09T19:15:44.803Z,36.48
2024-05-09T19:18:15.118Z,36.49
2024-05-09T19:20:42.206Z,36.60
2024-05-09T19:23:09.206Z,36.14
2024-05-09T19:25:36.013Z,36.02
2024-05-09T19:28:03.716Z,36.56
2024-05-09T19:30:38.007Z,36.33
2024-05-09T19:33:08.411Z,36.56
2024-05-09T19:35:34.845Z,36.82
2024-05-09T19:38:01.346Z,36.59
2024-05-09T19:40:31.898Z,37.24
2024-05-09T19:43:00.874Z,36.99
2024-05-09T19:45:27.182Z,37.97
2024-05-09T19:47:53.476Z,37.72
2024-05-09T19:50:26.822Z,38.18
2024-05-09T19:53:01.730Z,38.29
2024-05-09T19:55:27.868Z,38.77
2024-05-09T19:57:54.002Z,38.98
2024-05-09T20:00:26.527Z,39.16
2024-05-09T20:02:58.728Z,38.90
2024-05-09T20:05:24.981Z,40.20
2024-05-09T20:07:51.138Z,40.08
2024-05-09T20:10:23.729Z,40.33
2024-05-09T20:12:53.277Z,40.36
2024-05-09T20:15:19.373Z,40.75
2024-05-09T20:17:45.516Z,40.41
2024-05-09T20:20:20.280Z,40.39
2024-05-09T20:22:54.225Z,40.10
2024-05-09T20:25:20.262Z,41.00
2024-05-09T20:27:46.372Z,41.12
2024-05-09T20:30:17.053Z,42.01
2024-05-09T20:32:47.636Z,42.48
2024-05-09T20:35:13.945Z,42.18
2024-05-09T20:37:39.980Z,42.43
2024-05-09T20:40:10.110Z,42.77
2024-05-09T20:42:44.262Z,43.03
2024-05-09T20:45:10.313Z,43.40
2024-05-09T20:47:37.897Z,43.56
2024-05-09T20:50:09.064Z,43.39
2024-05-09T20:52:39.476Z,43.85
2024-05-09T20:55:05.852Z,43.25
2024-05-09T20:57:32.030Z,43.79
2024-05-09T20:59:58.273Z,44.02
2024-05-09T21:02:24.548Z,43.82
2024-05-09T21:04:50.993Z,44.11
2024-05-09T21:07:17.329Z,44.68
2024-05-09T21:09:43.500Z,44.85
2024-05-09T21:12:09.606Z,44.38
2024-05-09T21:14:35.635Z,44.39
2024-05-09T21:17:01.815Z,44.91
2024-05-09T21:19:28.006Z,44.92
2024-05-09T21:21:54.100Z,45.00
2024-05-09T21:24:20.188Z,45.16
2024-05-09T21:26:46.227Z,44.90
2024-05-09T21:29:12.272Z,44.71
2024-05-09T21:31:38.382Z,45.68
2024-05-09T21:34:04.575Z,45.47
2024-05-09T21:36:30.712Z,45.88
2024-05-09T21:38:56.738Z,45.85
2024-05-09T21:41:24.107Z,45.69
2024-05-09T21:43:50.189Z,45.89
2024-05-09T21:46:16.313Z,45.67
2024-05-09T21:48:42.533Z,45.87
2024-05-09T21:51:15.367Z,46.42
2024-05-09T21:53:41.418Z,46.71
2024-05-09T21:56:08.048Z,46.61
2024-05-09T21:58:34.147Z,46.89
2024-05-09T22:01:00.383Z,46.87
2024-05-09T22:03:26.710Z,47.35
2024-05-09T22:05:52.932Z,47.07
2024-05-09T22:08:18.971Z,47.15
2024-05-09T22:10:45.211Z,47.88
2024-05-09T22:13:11.400Z,47.04
2024-05-09T22:15:39.665Z,47.35
2024-05-09T22:18:10.494Z,47.66
2024-05-09T22:20:42.857Z,47.81
2024-05-09T22:23:09.477Z,47.78
2024-05-09T22:25:36.312Z,47.09
2024-05-09T22:28:03.071Z,47.67
2024-05-09T22:32:58.575Z,47.80
2024-05-09T22:35:24.701Z,47.91
2024-05-09T22:37:50.768Z,47.94
2024-05-09T22:40:24.378Z,47.74
2024-05-09T22:42:59.543Z,48.48
2024-05-09T22:45:25.669Z,48.25
2024-05-09T22:47:51.821Z,48.43
2024-05-09T22:50:26.334Z,48.02
2024-05-09T22:52:53.411Z,48.70
2024-05-09T22:55:19.515Z,48.80
2024-05-09T22:57:45.663Z,48.56
2024-05-09T23:00:15.746Z,48.88
2024-05-09T23:02:42.242Z,49.64
2024-05-09T23:05:08.524Z,49.78
2024-05-09T23:07:34.660Z,50.15
2024-05-09T23:10:00.816Z,50.39
2024-05-09T23:12:26.930Z,50.41
2024-05-09T23:14:52.970Z,50.27
2024-05-09T23:17:19.105Z,50.91
2024-05-09T23:19:45.320Z,50.40
2024-05-09T23:22:11.595Z,50.53
2024-05-09T23:24:38.405Z,50.64
2024-05-09T23:27:04.600Z,50.85
2024-05-09T23:29:30.703Z,50.69
2024-05-09T23:31:56.740Z,50.93
2024-05-09T23:34:23.559Z,51.12
2024-05-09T23:36:49.808Z,50.93
2024-05-09T23:39:17.699Z,52.08
2024-05-09T23:41:43.739Z,52.82
2024-05-09T23:44:09.881Z,52.21
2024-05-09T23:46:35.991Z,53.11
2024-05-09T23:49:02.203Z,53.33
2024-05-09T23:51:28.302Z,53.88
2024-05-09T23:53:54.340Z,53.92
2024-05-09T23:56:22.919Z,53.47
2024-05-09T23:58:48.965Z,53.45
